sensor_id;sensor_type;location;lat;lon;timestamp;temperature;humidity
48551;DHT22;34397;51.176;6.738;2023-06-22T00:00:29;25.40;44.90
48551;DHT22;34397;51.176;6.738;2023-06-22T00:03:01;25.40;44.60
48551;DHT22;34397;51.176;6.738;2023-06-22T00:05:32;25.40;44.70
48551;DHT22;34397;51.176;6.738;2023-06-22T00:08:05;25.40;44.70
48551;DHT22;34397;51.176;6.738;2023-06-22T00:10:36;25.40;44.60
48551;DHT22;34397;51.176;6.738;2023-06-22T00:13:10;25.40;44.60
48551;DHT22;34397;51.176;6.738;2023-06-22T00:15:42;25.30;44.70
48551;DHT22;34397;51.176;6.738;2023-06-22T00:18:14;25.30;44.80
48551;DHT22;34397;51.176;6.738;2023-06-22T00:20:46;25.30;44.90
48551;DHT22;34397;51.176;6.738;2023-06-22T00:23:17;25.20;44.90
48551;DHT22;34397;51.176;6.738;2023-06-22T00:25:50;25.20;44.90
48551;DHT22;34397;51.176;6.738;2023-06-22T00:28:23;25.30;44.90
48551;DHT22;34397;51.176;6.738;2023-06-22T00:30:55;25.20;44.80
48551;DHT22;34397;51.176;6.738;2023-06-22T00:33:27;25.20;44.80
48551;DHT22;34397;51.176;6.738;2023-06-22T00:35:59;25.20;45.00
48551;DHT22;34397;51.176;6.738;2023-06-22T00:38:33;25.20;44.90
48551;DHT22;34397;51.176;6.738;2023-06-22T00:41:05;25.20;44.80
48551;DHT22;34397;51.176;6.738;2023-06-22T00:43:38;25.10;44.90
48551;DHT22;34397;51.176;6.738;2023-06-22T00:46:11;25.10;45.10
48551;DHT22;34397;51.176;6.738;2023-06-22T00:48:43;25.10;44.80
48551;DHT22;34397;51.176;6.738;2023-06-22T00:51:15;25.10;45.00
48551;DHT22;34397;51.176;6.738;2023-06-22T00:53:47;25.10;45.00
48551;DHT22;34397;51.176;6.738;2023-06-22T00:56:19;25.00;44.80
48551;DHT22;34397;51.176;6.738;2023-06-22T00:58:57;25.00;45.10
48551;DHT22;34397;51.176;6.738;2023-06-22T01:01:29;25.00;44.70
48551;DHT22;34397;51.176;6.738;2023-06-22T01:04:01;25.00;45.10
48551;DHT22;34397;51.176;6.738;2023-06-22T01:06:40;25.00;45.10
48551;DHT22;34397;51.176;6.738;2023-06-22T01:09:19;25.00;45.20
48551;DHT22;34397;51.176;6.738;2023-06-22T01:12:02;25.00;45.20
48551;DHT22;34397;51.176;6.738;2023-06-22T01:14:42;24.90;45.30
48551;DHT22;34397;51.176;6.738;2023-06-22T01:17:15;25.00;45.30
48551;DHT22;34397;51.176;6.738;2023-06-22T01:19:50;24.90;45.40
48551;DHT22;34397;51.176;6.738;2023-06-22T01:22:30;24.90;45.40
48551;DHT22;34397;51.176;6.738;2023-06-22T01:25:09;24.90;45.70
48551;DHT22;34397;51.176;6.738;2023-06-22T01:27:53;24.90;45.70
48551;DHT22;34397;51.176;6.738;2023-06-22T01:30:33;24.90;45.70
48551;DHT22;34397;51.176;6.738;2023-06-22T01:33:05;24.90;45.80
48551;DHT22;34397;51.176;6.738;2023-06-22T01:35:38;24.80;45.90
48551;DHT22;34397;51.176;6.738;2023-06-22T01:38:10;24.80;46.40
48551;DHT22;34397;51.176;6.738;2023-06-22T01:40:42;24.80;46.40
48551;DHT22;34397;51.176;6.738;2023-06-22T01:43:14;24.80;46.50
48551;DHT22;34397;51.176;6.738;2023-06-22T01:45:48;24.80;46.10
48551;DHT22;34397;51.176;6.738;2023-06-22T01:48:21;24.80;46.50
48551;DHT22;34397;51.176;6.738;2023-06-22T01:50:53;24.80;46.80
48551;DHT22;34397;51.176;6.738;2023-06-22T01:53:25;24.70;46.80
48551;DHT22;34397;51.176;6.738;2023-06-22T01:55:57;24.70;46.90
48551;DHT22;34397;51.176;6.738;2023-06-22T01:58:30;24.60;47.10
48551;DHT22;34397;51.176;6.738;2023-06-22T02:01:09;24.60;47.30
48551;DHT22;34397;51.176;6.738;2023-06-22T02:03:46;24.60;47.10
48551;DHT22;34397;51.176;6.738;2023-06-22T02:06:27;24.60;47.40
48551;DHT22;34397;51.176;6.738;2023-06-22T02:09:08;24.60;47.50
48551;DHT22;34397;51.176;6.738;2023-06-22T02:11:43;24.50;47.50
48551;DHT22;34397;51.176;6.738;2023-06-22T02:14:16;24.50;47.80
48551;DHT22;34397;51.176;6.738;2023-06-22T02:16:51;24.50;48.10
48551;DHT22;34397;51.176;6.738;2023-06-22T02:19:23;24.50;48.00
48551;DHT22;34397;51.176;6.738;2023-06-22T02:21:56;24.40;48.00
48551;DHT22;34397;51.176;6.738;2023-06-22T02:24:27;24.40;48.10
48551;DHT22;34397;51.176;6.738;2023-06-22T02:27:02;24.40;48.20
48551;DHT22;34397;51.176;6.738;2023-06-22T02:29:36;24.40;48.20
48551;DHT22;34397;51.176;6.738;2023-06-22T02:32:09;24.40;48.30
48551;DHT22;34397;51.176;6.738;2023-06-22T02:34:41;24.40;47.70
48551;DHT22;34397;51.176;6.738;2023-06-22T02:37:15;24.40;48.20
48551;DHT22;34397;51.176;6.738;2023-06-22T02:39:47;24.40;48.40
48551;DHT22;34397;51.176;6.738;2023-06-22T02:42:18;24.40;48.30
48551;DHT22;34397;51.176;6.738;2023-06-22T02:44:52;24.40;47.80
48551;DHT22;34397;51.176;6.738;2023-06-22T02:47:25;24.40;48.40
48551;DHT22;34397;51.176;6.738;2023-06-22T02:49:57;24.40;48.70
48551;DHT22;34397;51.176;6.738;2023-06-22T02:52:29;24.40;48.90
48551;DHT22;34397;51.176;6.738;2023-06-22T02:55:01;24.30;48.80
48551;DHT22;34397;51.176;6.738;2023-06-22T02:57:33;24.30;48.70
48551;DHT22;34397;51.176;6.738;2023-06-22T03:00:06;24.40;48.30
48551;DHT22;34397;51.176;6.738;2023-06-22T03:02:48;24.40;48.80
48551;DHT22;34397;51.176;6.738;2023-06-22T03:05:20;24.40;49.00
48551;DHT22;34397;51.176;6.738;2023-06-22T03:07:53;24.40;49.20
48551;DHT22;34397;51.176;6.738;2023-06-22T03:10:25;24.30;49.00
48551;DHT22;34397;51.176;6.738;2023-06-22T03:12:56;24.40;49.00
48551;DHT22;34397;51.176;6.738;2023-06-22T03:15:28;24.40;49.10
48551;DHT22;34397;51.176;6.738;2023-06-22T03:18:03;24.30;49.20
48551;DHT22;34397;51.176;6.738;2023-06-22T03:20:35;24.30;49.50
48551;DHT22;34397;51.176;6.738;2023-06-22T03:23:07;24.30;49.50
48551;DHT22;34397;51.176;6.738;2023-06-22T03:25:39;24.30;49.40
48551;DHT22;34397;51.176;6.738;2023-06-22T03:28:10;24.30;49.40
48551;DHT22;34397;51.176;6.738;2023-06-22T03:30:42;24.30;49.40
48551;DHT22;34397;51.176;6.738;2023-06-22T03:33:15;24.30;49.60
48551;DHT22;34397;51.176;6.738;2023-06-22T03:35:47;24.30;50.30
48551;DHT22;34397;51.176;6.738;2023-06-22T03:38:20;24.30;49.80
48551;DHT22;34397;51.176;6.738;2023-06-22T03:40:52;24.30;49.70
48551;DHT22;34397;51.176;6.738;2023-06-22T03:43:24;24.20;49.70
48551;DHT22;34397;51.176;6.738;2023-06-22T03:45:55;24.20;49.70
48551;DHT22;34397;51.176;6.738;2023-06-22T03:48:29;24.20;49.70
48551;DHT22;34397;51.176;6.738;2023-06-22T03:51:01;24.20;49.80
48551;DHT22;34397;51.176;6.738;2023-06-22T03:53:34;24.20;49.80
48551;DHT22;34397;51.176;6.738;2023-06-22T03:56:06;24.20;50.00
48551;DHT22;34397;51.176;6.738;2023-06-22T03:58:37;24.20;49.90
48551;DHT22;34397;51.176;6.738;2023-06-22T04:01:13;24.20;50.00
48551;DHT22;34397;51.176;6.738;2023-06-22T04:03:48;24.10;50.00
48551;DHT22;34397;51.176;6.738;2023-06-22T04:06:20;24.10;50.60
48551;DHT22;34397;51.176;6.738;2023-06-22T04:08:53;24.10;50.10
48551;DHT22;34397;51.176;6.738;2023-06-22T04:11:24;24.10;50.20
48551;DHT22;34397;51.176;6.738;2023-06-22T04:13:56;24.10;50.10
48551;DHT22;34397;51.176;6.738;2023-06-22T04:16:28;24.10;50.20
48551;DHT22;34397;51.176;6.738;2023-06-22T04:19:01;24.10;50.40
48551;DHT22;34397;51.176;6.738;2023-06-22T04:21:33;24.10;49.60
48551;DHT22;34397;51.176;6.738;2023-06-22T04:24:06;24.10;50.20
48551;DHT22;34397;51.176;6.738;2023-06-22T04:26:38;24.10;50.40
48551;DHT22;34397;51.176;6.738;2023-06-22T04:29:12;24.10;50.50
48551;DHT22;34397;51.176;6.738;2023-06-22T04:31:44;24.00;50.50
48551;DHT22;34397;51.176;6.738;2023-06-22T04:34:22;24.00;50.70
48551;DHT22;34397;51.176;6.738;2023-06-22T04:36:56;24.00;50.70
48551;DHT22;34397;51.176;6.738;2023-06-22T04:39:29;24.00;50.90
48551;DHT22;34397;51.176;6.738;2023-06-22T04:42:02;23.90;51.00
48551;DHT22;34397;51.176;6.738;2023-06-22T04:44:34;24.00;51.10
48551;DHT22;34397;51.176;6.738;2023-06-22T04:47:06;23.90;50.30
48551;DHT22;34397;51.176;6.738;2023-06-22T04:49:40;23.90;50.80
48551;DHT22;34397;51.176;6.738;2023-06-22T04:52:14;23.90;51.20
48551;DHT22;34397;51.176;6.738;2023-06-22T04:54:48;23.90;51.30
48551;DHT22;34397;51.176;6.738;2023-06-22T04:57:25;23.90;51.40
48551;DHT22;34397;51.176;6.738;2023-06-22T05:00:03;23.90;51.60
48551;DHT22;34397;51.176;6.738;2023-06-22T05:02:44;23.90;51.50
48551;DHT22;34397;51.176;6.738;2023-06-22T05:05:18;23.90;50.70
48551;DHT22;34397;51.176;6.738;2023-06-22T05:07:51;23.90;51.20
48551;DHT22;34397;51.176;6.738;2023-06-22T05:10:25;23.90;51.00
48551;DHT22;34397;51.176;6.738;2023-06-22T05:12:57;23.90;51.40
48551;DHT22;34397;51.176;6.738;2023-06-22T05:15:29;23.90;51.10
48551;DHT22;34397;51.176;6.738;2023-06-22T05:18:07;23.90;51.30
48551;DHT22;34397;51.176;6.738;2023-06-22T05:20:40;24.00;51.20
48551;DHT22;34397;51.176;6.738;2023-06-22T05:23:12;24.00;51.50
48551;DHT22;34397;51.176;6.738;2023-06-22T05:25:44;24.00;51.70
48551;DHT22;34397;51.176;6.738;2023-06-22T05:28:16;24.00;51.40
48551;DHT22;34397;51.176;6.738;2023-06-22T05:30:53;24.00;51.20
48551;DHT22;34397;51.176;6.738;2023-06-22T05:33:25;24.10;51.30
48551;DHT22;34397;51.176;6.738;2023-06-22T05:35:58;24.10;50.70
48551;DHT22;34397;51.176;6.738;2023-06-22T05:38:30;24.10;51.00
48551;DHT22;34397;51.176;6.738;2023-06-22T05:41:02;24.10;50.80
48551;DHT22;34397;51.176;6.738;2023-06-22T05:43:34;24.20;50.60
48551;DHT22;34397;51.176;6.738;2023-06-22T05:46:06;24.20;50.30
48551;DHT22;34397;51.176;6.738;2023-06-22T05:48:37;24.20;50.60
48551;DHT22;34397;51.176;6.738;2023-06-22T05:51:11;24.20;50.50
48551;DHT22;34397;51.176;6.738;2023-06-22T05:53:43;24.20;50.60
48551;DHT22;34397;51.176;6.738;2023-06-22T05:56:17;24.20;50.90
48551;DHT22;34397;51.176;6.738;2023-06-22T05:58:49;24.20;50.60
48551;DHT22;34397;51.176;6.738;2023-06-22T06:01:20;24.20;50.80
48551;DHT22;34397;51.176;6.738;2023-06-22T06:03:53;24.20;51.10
48551;DHT22;34397;51.176;6.738;2023-06-22T06:06:26;24.20;50.90
48551;DHT22;34397;51.176;6.738;2023-06-22T06:08:59;24.20;51.00
48551;DHT22;34397;51.176;6.738;2023-06-22T06:11:30;24.20;50.90
48551;DHT22;34397;51.176;6.738;2023-06-22T06:14:02;24.30;50.80
48551;DHT22;34397;51.176;6.738;2023-06-22T06:16:34;24.30;50.90
48551;DHT22;34397;51.176;6.738;2023-06-22T06:19:06;24.30;50.80
48551;DHT22;34397;51.176;6.738;2023-06-22T06:21:39;24.30;50.90
48551;DHT22;34397;51.176;6.738;2023-06-22T06:24:12;24.30;51.00
48551;DHT22;34397;51.176;6.738;2023-06-22T06:26:44;24.20;51.00
48551;DHT22;34397;51.176;6.738;2023-06-22T06:29:15;24.20;51.00
48551;DHT22;34397;51.176;6.738;2023-06-22T06:31:47;24.20;51.10
48551;DHT22;34397;51.176;6.738;2023-06-22T06:34:19;24.20;51.10
48551;DHT22;34397;51.176;6.738;2023-06-22T06:36:52;24.20;51.10
48551;DHT22;34397;51.176;6.738;2023-06-22T06:39:24;24.20;51.70
48551;DHT22;34397;51.176;6.738;2023-06-22T06:41:56;24.20;51.80
48551;DHT22;34397;51.176;6.738;2023-06-22T06:44:28;24.20;52.30
48551;DHT22;34397;51.176;6.738;2023-06-22T06:47:00;24.20;54.00
48551;DHT22;34397;51.176;6.738;2023-06-22T06:49:33;24.20;54.80
48551;DHT22;34397;51.176;6.738;2023-06-22T06:52:06;24.10;54.90
48551;DHT22;34397;51.176;6.738;2023-06-22T06:54:38;24.10;55.90
48551;DHT22;34397;51.176;6.738;2023-06-22T06:57:12;24.00;55.60
48551;DHT22;34397;51.176;6.738;2023-06-22T06:59:45;23.90;56.00
48551;DHT22;34397;51.176;6.738;2023-06-22T07:02:17;23.90;56.10
48551;DHT22;34397;51.176;6.738;2023-06-22T07:04:49;23.80;56.90
48551;DHT22;34397;51.176;6.738;2023-06-22T07:07:23;23.70;57.90
48551;DHT22;34397;51.176;6.738;2023-06-22T07:09:55;23.60;58.90
48551;DHT22;34397;51.176;6.738;2023-06-22T07:12:27;23.60;58.70
48551;DHT22;34397;51.176;6.738;2023-06-22T07:15:02;23.50;57.90
48551;DHT22;34397;51.176;6.738;2023-06-22T07:17:35;23.50;60.00
48551;DHT22;34397;51.176;6.738;2023-06-22T07:20:07;23.40;58.70
48551;DHT22;34397;51.176;6.738;2023-06-22T07:22:44;23.40;57.10
48551;DHT22;34397;51.176;6.738;2023-06-22T07:25:16;23.40;59.00
48551;DHT22;34397;51.176;6.738;2023-06-22T07:27:57;23.40;58.60
48551;DHT22;34397;51.176;6.738;2023-06-22T07:30:30;23.40;60.20
48551;DHT22;34397;51.176;6.738;2023-06-22T07:33:02;23.40;60.10
48551;DHT22;34397;51.176;6.738;2023-06-22T07:35:36;23.40;59.70
48551;DHT22;34397;51.176;6.738;2023-06-22T07:38:10;23.40;60.30
48551;DHT22;34397;51.176;6.738;2023-06-22T07:40:41;23.40;60.00
48551;DHT22;34397;51.176;6.738;2023-06-22T07:43:14;23.40;60.20
48551;DHT22;34397;51.176;6.738;2023-06-22T07:45:48;23.50;60.50
48551;DHT22;34397;51.176;6.738;2023-06-22T07:48:22;23.50;60.80
48551;DHT22;34397;51.176;6.738;2023-06-22T07:50:55;23.60;60.90
48551;DHT22;34397;51.176;6.738;2023-06-22T07:53:28;23.60;61.00
48551;DHT22;34397;51.176;6.738;2023-06-22T07:56:00;23.70;61.20
48551;DHT22;34397;51.176;6.738;2023-06-22T07:58:37;23.80;60.50
48551;DHT22;34397;51.176;6.738;2023-06-22T08:01:09;23.80;61.20
48551;DHT22;34397;51.176;6.738;2023-06-22T08:03:42;23.90;61.20
48551;DHT22;34397;51.176;6.738;2023-06-22T08:06:14;24.00;61.30
48551;DHT22;34397;51.176;6.738;2023-06-22T08:08:47;24.10;60.20
48551;DHT22;34397;51.176;6.738;2023-06-22T08:11:19;24.10;61.10
48551;DHT22;34397;51.176;6.738;2023-06-22T08:13:53;24.20;61.50
48551;DHT22;34397;51.176;6.738;2023-06-22T08:16:26;24.30;61.60
48551;DHT22;34397;51.176;6.738;2023-06-22T08:18:57;24.30;61.60
48551;DHT22;34397;51.176;6.738;2023-06-22T08:21:29;24.40;61.50
48551;DHT22;34397;51.176;6.738;2023-06-22T08:24:03;24.40;60.90
48551;DHT22;34397;51.176;6.738;2023-06-22T08:26:35;24.50;61.60
48551;DHT22;34397;51.176;6.738;2023-06-22T08:29:08;24.60;61.30
48551;DHT22;34397;51.176;6.738;2023-06-22T08:31:40;24.70;60.70
48551;DHT22;34397;51.176;6.738;2023-06-22T08:34:12;24.80;60.80
48551;DHT22;34397;51.176;6.738;2023-06-22T08:36:44;24.80;60.50
48551;DHT22;34397;51.176;6.738;2023-06-22T08:39:20;25.00;60.50
48551;DHT22;34397;51.176;6.738;2023-06-22T08:41:52;25.10;61.10
48551;DHT22;34397;51.176;6.738;2023-06-22T08:44:25;25.20;60.20
48551;DHT22;34397;51.176;6.738;2023-06-22T08:46:57;25.30;59.90
48551;DHT22;34397;51.176;6.738;2023-06-22T08:49:28;25.50;60.80
48551;DHT22;34397;51.176;6.738;2023-06-22T08:52:00;25.60;60.20
48551;DHT22;34397;51.176;6.738;2023-06-22T08:54:33;25.70;59.30
48551;DHT22;34397;51.176;6.738;2023-06-22T08:57:06;25.90;56.60
48551;DHT22;34397;51.176;6.738;2023-06-22T08:59:38;26.00;56.90
48551;DHT22;34397;51.176;6.738;2023-06-22T09:02:10;26.00;58.20
48551;DHT22;34397;51.176;6.738;2023-06-22T09:04:42;26.10;58.80
48551;DHT22;34397;51.176;6.738;2023-06-22T09:07:14;26.10;58.40
48551;DHT22;34397;51.176;6.738;2023-06-22T09:09:55;26.20;58.30
48551;DHT22;34397;51.176;6.738;2023-06-22T09:12:27;26.30;58.30
48551;DHT22;34397;51.176;6.738;2023-06-22T09:15:01;26.30;58.30
48551;DHT22;34397;51.176;6.738;2023-06-22T09:17:33;26.40;58.10
48551;DHT22;34397;51.176;6.738;2023-06-22T09:20:08;26.60;57.90
48551;DHT22;34397;51.176;6.738;2023-06-22T09:22:41;26.70;57.20
48551;DHT22;34397;51.176;6.738;2023-06-22T09:25:14;26.90;57.60
48551;DHT22;34397;51.176;6.738;2023-06-22T09:27:46;27.00;56.60
48551;DHT22;34397;51.176;6.738;2023-06-22T09:30:19;27.20;55.50
48551;DHT22;34397;51.176;6.738;2023-06-22T09:32:51;27.40;54.00
48551;DHT22;34397;51.176;6.738;2023-06-22T09:35:22;27.60;53.70
48551;DHT22;34397;51.176;6.738;2023-06-22T09:37:54;27.80;53.70
48551;DHT22;34397;51.176;6.738;2023-06-22T09:40:27;28.00;51.70
48551;DHT22;34397;51.176;6.738;2023-06-22T09:42:59;28.10;51.40
48551;DHT22;34397;51.176;6.738;2023-06-22T09:45:31;28.30;52.00
48551;DHT22;34397;51.176;6.738;2023-06-22T09:48:03;28.50;52.00
48551;DHT22;34397;51.176;6.738;2023-06-22T09:50:35;28.80;51.90
48551;DHT22;34397;51.176;6.738;2023-06-22T09:53:07;29.10;50.40
48551;DHT22;34397;51.176;6.738;2023-06-22T09:55:41;29.40;50.60
48551;DHT22;34397;51.176;6.738;2023-06-22T09:58:12;29.70;48.40
48551;DHT22;34397;51.176;6.738;2023-06-22T10:00:44;30.10;46.80
48551;DHT22;34397;51.176;6.738;2023-06-22T10:03:16;30.30;46.70
48551;DHT22;34397;51.176;6.738;2023-06-22T10:05:48;30.40;46.60
48551;DHT22;34397;51.176;6.738;2023-06-22T10:08:20;30.60;46.40
48551;DHT22;34397;51.176;6.738;2023-06-22T10:10:53;30.70;45.60
48551;DHT22;34397;51.176;6.738;2023-06-22T10:13:25;30.90;45.50
48551;DHT22;34397;51.176;6.738;2023-06-22T10:15:57;30.90;45.40
48551;DHT22;34397;51.176;6.738;2023-06-22T10:18:29;31.00;45.10
48551;DHT22;34397;51.176;6.738;2023-06-22T10:21:02;30.90;45.70
48551;DHT22;34397;51.176;6.738;2023-06-22T10:23:34;30.80;45.30
48551;DHT22;34397;51.176;6.738;2023-06-22T10:26:07;30.70;45.00
48551;DHT22;34397;51.176;6.738;2023-06-22T10:28:39;30.60;45.20
48551;DHT22;34397;51.176;6.738;2023-06-22T10:31:10;30.40;45.70
48551;DHT22;34397;51.176;6.738;2023-06-22T10:33:42;30.20;46.00
48551;DHT22;34397;51.176;6.738;2023-06-22T10:36:15;30.10;46.30
48551;DHT22;34397;51.176;6.738;2023-06-22T10:38:46;29.90;46.70
48551;DHT22;34397;51.176;6.738;2023-06-22T10:41:20;29.70;47.50
48551;DHT22;34397;51.176;6.738;2023-06-22T10:43:52;29.50;47.40
48551;DHT22;34397;51.176;6.738;2023-06-22T10:46:24;29.30;48.80
48551;DHT22;34397;51.176;6.738;2023-06-22T10:48:55;29.20;51.80
48551;DHT22;34397;51.176;6.738;2023-06-22T10:51:29;29.00;51.80
48551;DHT22;34397;51.176;6.738;2023-06-22T10:54:01;28.80;53.80
48551;DHT22;34397;51.176;6.738;2023-06-22T10:56:36;28.50;54.00
48551;DHT22;34397;51.176;6.738;2023-06-22T10:59:07;28.30;55.80
48551;DHT22;34397;51.176;6.738;2023-06-22T11:01:39;28.10;55.80
48551;DHT22;34397;51.176;6.738;2023-06-22T11:04:11;27.90;58.00
48551;DHT22;34397;51.176;6.738;2023-06-22T11:06:43;27.60;59.30
48551;DHT22;34397;51.176;6.738;2023-06-22T11:09:15;27.40;60.70
48551;DHT22;34397;51.176;6.738;2023-06-22T11:11:51;27.10;62.00
48551;DHT22;34397;51.176;6.738;2023-06-22T11:14:24;26.90;60.70
48551;DHT22;34397;51.176;6.738;2023-06-22T11:16:56;26.70;60.30
48551;DHT22;34397;51.176;6.738;2023-06-22T11:19:28;26.40;61.90
48551;DHT22;34397;51.176;6.738;2023-06-22T11:22:00;26.20;62.10
48551;DHT22;34397;51.176;6.738;2023-06-22T11:24:32;26.10;62.60
48551;DHT22;34397;51.176;6.738;2023-06-22T11:27:06;25.90;63.50
48551;DHT22;34397;51.176;6.738;2023-06-22T11:29:38;25.80;64.00
48551;DHT22;34397;51.176;6.738;2023-06-22T11:32:10;25.70;63.80
48551;DHT22;34397;51.176;6.738;2023-06-22T11:34:42;25.60;63.30
48551;DHT22;34397;51.176;6.738;2023-06-22T11:37:14;25.50;64.00
48551;DHT22;34397;51.176;6.738;2023-06-22T11:39:45;25.40;63.90
48551;DHT22;34397;51.176;6.738;2023-06-22T11:42:18;25.30;64.00
48551;DHT22;34397;51.176;6.738;2023-06-22T11:44:50;25.20;64.00
48551;DHT22;34397;51.176;6.738;2023-06-22T11:47:23;25.20;64.30
48551;DHT22;34397;51.176;6.738;2023-06-22T11:49:54;25.20;64.40
48551;DHT22;34397;51.176;6.738;2023-06-22T11:52:26;25.20;64.50
48551;DHT22;34397;51.176;6.738;2023-06-22T11:54:58;25.10;64.30
48551;DHT22;34397;51.176;6.738;2023-06-22T11:57:33;25.10;64.40
48551;DHT22;34397;51.176;6.738;2023-06-22T12:00:07;25.20;65.30
48551;DHT22;34397;51.176;6.738;2023-06-22T12:02:47;25.20;65.10
48551;DHT22;34397;51.176;6.738;2023-06-22T12:05:19;25.20;64.70
48551;DHT22;34397;51.176;6.738;2023-06-22T12:07:53;25.30;66.20
48551;DHT22;34397;51.176;6.738;2023-06-22T12:10:25;25.30;66.40
48551;DHT22;34397;51.176;6.738;2023-06-22T12:13:00;25.30;65.80
48551;DHT22;34397;51.176;6.738;2023-06-22T12:15:32;25.40;66.10
48551;DHT22;34397;51.176;6.738;2023-06-22T12:18:04;25.40;65.80
48551;DHT22;34397;51.176;6.738;2023-06-22T12:20:35;25.50;65.70
48551;DHT22;34397;51.176;6.738;2023-06-22T12:23:07;25.50;63.50
48551;DHT22;34397;51.176;6.738;2023-06-22T12:25:39;25.60;64.10
48551;DHT22;34397;51.176;6.738;2023-06-22T12:28:12;25.60;64.50
48551;DHT22;34397;51.176;6.738;2023-06-22T12:30:44;25.60;64.70
48551;DHT22;34397;51.176;6.738;2023-06-22T12:33:16;25.50;64.40
48551;DHT22;34397;51.176;6.738;2023-06-22T12:35:48;25.60;64.70
48551;DHT22;34397;51.176;6.738;2023-06-22T12:38:20;25.50;65.00
48551;DHT22;34397;51.176;6.738;2023-06-22T12:40:52;25.60;63.00
48551;DHT22;34397;51.176;6.738;2023-06-22T12:43:25;25.70;64.90
48551;DHT22;34397;51.176;6.738;2023-06-22T12:45:57;25.70;65.70
48551;DHT22;34397;51.176;6.738;2023-06-22T12:48:28;25.70;65.10
48551;DHT22;34397;51.176;6.738;2023-06-22T12:51:00;25.80;63.30
48551;DHT22;34397;51.176;6.738;2023-06-22T12:53:32;26.00;64.70
48551;DHT22;34397;51.176;6.738;2023-06-22T12:56:04;26.10;62.90
48551;DHT22;34397;51.176;6.738;2023-06-22T12:58:37;26.20;63.70
48551;DHT22;34397;51.176;6.738;2023-06-22T13:01:09;26.20;64.20
48551;DHT22;34397;51.176;6.738;2023-06-22T13:03:42;26.30;63.80
48551;DHT22;34397;51.176;6.738;2023-06-22T13:06:13;26.30;63.40
48551;DHT22;34397;51.176;6.738;2023-06-22T13:08:45;26.30;63.40
48551;DHT22;34397;51.176;6.738;2023-06-22T13:11:17;26.40;62.60
48551;DHT22;34397;51.176;6.738;2023-06-22T13:13:50;26.40;62.60
48551;DHT22;34397;51.176;6.738;2023-06-22T13:16:22;26.40;62.70
48551;DHT22;34397;51.176;6.738;2023-06-22T13:18:54;26.30;63.20
48551;DHT22;34397;51.176;6.738;2023-06-22T13:21:26;26.30;63.50
48551;DHT22;34397;51.176;6.738;2023-06-22T13:23:57;26.40;63.80
48551;DHT22;34397;51.176;6.738;2023-06-22T13:26:29;26.40;61.50
48551;DHT22;34397;51.176;6.738;2023-06-22T13:29:02;26.60;63.20
48551;DHT22;34397;51.176;6.738;2023-06-22T13:31:34;26.70;63.30
48551;DHT22;34397;51.176;6.738;2023-06-22T13:34:06;26.70;61.90
48551;DHT22;34397;51.176;6.738;2023-06-22T13:36:38;26.80;60.40
48551;DHT22;34397;51.176;6.738;2023-06-22T13:39:09;26.80;60.80
48551;DHT22;34397;51.176;6.738;2023-06-22T13:41:41;26.80;59.50
48551;DHT22;34397;51.176;6.738;2023-06-22T13:44:15;26.90;60.90
48551;DHT22;34397;51.176;6.738;2023-06-22T13:46:47;26.80;62.00
48551;DHT22;34397;51.176;6.738;2023-06-22T13:49:19;26.80;61.50
48551;DHT22;34397;51.176;6.738;2023-06-22T13:51:52;26.80;59.40
48551;DHT22;34397;51.176;6.738;2023-06-22T13:54:23;26.80;61.00
48551;DHT22;34397;51.176;6.738;2023-06-22T13:56:55;26.80;60.60
48551;DHT22;34397;51.176;6.738;2023-06-22T13:59:28;26.80;61.40
48551;DHT22;34397;51.176;6.738;2023-06-22T14:02:00;26.70;59.90
48551;DHT22;34397;51.176;6.738;2023-06-22T14:04:32;26.70;61.60
48551;DHT22;34397;51.176;6.738;2023-06-22T14:07:04;26.70;62.40
48551;DHT22;34397;51.176;6.738;2023-06-22T14:09:36;26.70;62.90
48551;DHT22;34397;51.176;6.738;2023-06-22T14:12:10;26.70;62.90
48551;DHT22;34397;51.176;6.738;2023-06-22T14:14:44;26.70;62.60
48551;DHT22;34397;51.176;6.738;2023-06-22T14:17:16;26.70;63.10
48551;DHT22;34397;51.176;6.738;2023-06-22T14:19:47;26.80;61.80
48551;DHT22;34397;51.176;6.738;2023-06-22T14:22:19;26.90;61.50
48551;DHT22;34397;51.176;6.738;2023-06-22T14:24:51;27.00;60.90
48551;DHT22;34397;51.176;6.738;2023-06-22T14:27:23;27.00;60.70
48551;DHT22;34397;51.176;6.738;2023-06-22T14:29:56;27.00;60.30
48551;DHT22;34397;51.176;6.738;2023-06-22T14:32:28;26.90;60.50
48551;DHT22;34397;51.176;6.738;2023-06-22T14:35:01;26.80;60.20
48551;DHT22;34397;51.176;6.738;2023-06-22T14:37:33;26.70;60.30
48551;DHT22;34397;51.176;6.738;2023-06-22T14:40:05;26.60;60.50
48551;DHT22;34397;51.176;6.738;2023-06-22T14:42:38;26.50;60.70
48551;DHT22;34397;51.176;6.738;2023-06-22T14:45:12;26.30;61.00
48551;DHT22;34397;51.176;6.738;2023-06-22T14:47:44;26.20;61.30
48551;DHT22;34397;51.176;6.738;2023-06-22T14:50:16;26.20;61.60
48551;DHT22;34397;51.176;6.738;2023-06-22T14:52:48;26.10;61.70
48551;DHT22;34397;51.176;6.738;2023-06-22T14:55:20;26.00;61.10
48551;DHT22;34397;51.176;6.738;2023-06-22T14:57:51;26.00;61.60
48551;DHT22;34397;51.176;6.738;2023-06-22T15:00:24;25.90;60.70
48551;DHT22;34397;51.176;6.738;2023-06-22T15:02:56;25.90;61.80
48551;DHT22;34397;51.176;6.738;2023-06-22T15:05:29;25.80;62.00
48551;DHT22;34397;51.176;6.738;2023-06-22T15:08:01;25.80;62.20
48551;DHT22;34397;51.176;6.738;2023-06-22T15:10:33;25.80;62.60
48551;DHT22;34397;51.176;6.738;2023-06-22T15:13:05;25.80;62.50
48551;DHT22;34397;51.176;6.738;2023-06-22T15:15:38;25.80;62.20
48551;DHT22;34397;51.176;6.738;2023-06-22T15:18:10;25.80;62.10
48551;DHT22;34397;51.176;6.738;2023-06-22T15:20:42;25.80;62.10
48551;DHT22;34397;51.176;6.738;2023-06-22T15:23:17;25.80;61.80
48551;DHT22;34397;51.176;6.738;2023-06-22T15:25:49;25.70;61.60
48551;DHT22;34397;51.176;6.738;2023-06-22T15:28:22;25.70;61.90
48551;DHT22;34397;51.176;6.738;2023-06-22T15:30:55;25.70;61.70
48551;DHT22;34397;51.176;6.738;2023-06-22T15:33:27;25.60;61.70
48551;DHT22;34397;51.176;6.738;2023-06-22T15:35:59;25.60;61.50
48551;DHT22;34397;51.176;6.738;2023-06-22T15:38:34;25.50;61.80
48551;DHT22;34397;51.176;6.738;2023-06-22T15:41:05;25.50;61.90
48551;DHT22;34397;51.176;6.738;2023-06-22T15:43:37;25.40;61.10
48551;DHT22;34397;51.176;6.738;2023-06-22T15:46:10;25.40;61.80
48551;DHT22;34397;51.176;6.738;2023-06-22T15:48:42;25.30;62.30
48551;DHT22;34397;51.176;6.738;2023-06-22T15:51:14;25.20;62.90
48551;DHT22;34397;51.176;6.738;2023-06-22T15:53:46;25.10;63.60
48551;DHT22;34397;51.176;6.738;2023-06-22T15:56:18;25.00;64.30
48551;DHT22;34397;51.176;6.738;2023-06-22T15:58:51;24.90;65.00
48551;DHT22;34397;51.176;6.738;2023-06-22T16:01:24;24.80;65.50
48551;DHT22;34397;51.176;6.738;2023-06-22T16:03:56;24.70;66.10